Time,TemperatureF,DewpointF,PressureIn,WindDirection,WindDirectionDegrees,WindSpeedMPH,WindSpeedGustMPH,Humidity,HourlyPrecipIn,Conditions,Clouds,dailyrainin,SolarRadiationWatts/m^2,SoftwareType,DateUTC
2013-01-18 00:00:00,54.3,47.2,30.21,NW,310,30.0,31.0,77,0.00,,,0.00,0,LWC V2.10 B1813,2013-01-18 05:00:00,
2013-01-18 00:02:00,54.4,47.7,30.21,NW,312,30.0,30.0,78,0.00,,,0.00,0,LWC V2.10 B1813,2013-01-18 05:02:00,
2013-01-18 00:07:00,53.9,47.2,30.22,NW,322,24.0,30.0,78,0.00,,,0.00,0,LWC V2.10 B1813,2013-01-18 05:07:00,
2013-01-18 00:12:00,54.1,48.1,30.22,NW,320,30.0,34.0,80,0.00,,,0.00,0,LWC V2.10 B1813,2013-01-18 05:12:00,
2013-01-18 00:17:00,53.7,47.3,30.22,NW,312,27.0,31.0,79,0.00,,,0.00,0,LWC V2.10 B1813,2013-01-18 05:17:00,
2013-01-18 00:22:00,53.1,46.4,30.22,WNW,301,18.0,26.0,78,0.00,,,0.00,0,LWC V2.10 B1813,2013-01-18 05:22:00,
2013-01-18 00:27:00,53.2,46.5,30.22,NW,314,26.0,27.0,78,0.00,,,0.00,0,LWC V2.10 B1813,2013-01-18 05:27:00,
2013-01-18 00:32:00,53.2,46.9,30.22,NNW,347,20.0,23.0,79,0.00,,,0.00,0,LWC V2.10 B1813,2013-01-18 05:32:00,
2013-01-18 00:37:00,53.1,46.4,30.22,NW,312,22.0,30.0,78,0.00,,,0.00,0,LWC V2.10 B1813,2013-01-18 05:37:00,
2013-01-18 00:42:00,52.7,46.4,30.21,NNE,19,21.0,26.0,79,0.00,,,0.00,0,LWC V2.10 B1813,2013-01-18 05:42:00,
2013-01-18 00:47:00,52.7,46.4,30.22,North,11,18.0,24.0,79,0.00,,,0.00,0,LWC V2.10 B1813,2013-01-18 05:47:00,
2013-01-18 00:52:00,53.0,46.7,30.22,NW,323,27.0,27.0,79,0.00,,,0.00,0,LWC V2.10 B1813,2013-01-18 05:52:00,
2013-01-18 00:57:00,53.0,47.0,30.22,NW,321,26.0,27.0,80,0.00,,,0.00,0,LWC V2.10 B1813,2013-01-18 05:57:00,
2013-01-18 01:02:00,52.9,46.6,30.22,NW,318,25.0,29.0,79,0.00,,,0.00,0,LWC V2.10 B1813,2013-01-18 06:02:00,
2013-01-18 01:07:00,52.9,46.9,30.22,NNW,331,15.0,26.0,80,0.00,,,0.00,0,LWC V2.10 B1813,2013-01-18 06:07:00,
2013-01-18 01:12:00,52.6,46.3,30.22,NW,325,19.0,24.0,79,0.00,,,0.00,0,LWC V2.10 B1813,2013-01-18 06:12:00,
2013-01-18 01:17:00,52.7,46.7,30.22,NNE,18,8.0,27.0,80,0.00,,,0.00,0,LWC V2.10 B1813,2013-01-18 06:17:00,
2013-01-18 01:22:00,52.9,47.2,30.22,NW,310,23.0,30.0,81,0.00,,,0.00,0,LWC V2.10 B1813,2013-01-18 06:22:00,
2013-01-18 01:27:00,52.7,46.4,30.22,NNW,338,18.0,28.0,79,0.00,,,0.00,0,LWC V2.10 B1813,2013-01-18 06:27:00,
2013-01-18 01:32:00,52.4,46.4,30.22,NW,314,15.0,22.0,80,0.00,,,0.00,0,LWC V2.10 B1813,2013-01-18 06:32:00,
2013-01-18 01:37:00,52.1,45.8,30.22,NNW,345,14.0,25.0,79,0.00,,,0.00,0,LWC V2.10 B1813,2013-01-18 06:37:00,
2013-01-18 01:42:00,52.0,45.7,30.23,NW,323,21.0,24.0,79,0.00,,,0.00,0,LWC V2.10 B1813,2013-01-18 06:42:00,
2013-01-18 01:47:00,52.3,46.3,30.22,NNW,329,14.0,18.0,80,0.00,,,0.00,0,LWC V2.10 B1813,2013-01-18 06:47:00,
2013-01-18 01:52:00,52.1,46.1,30.22,NNW,327,13.0,21.0,80,0.00,,,0.00,0,LWC V2.10 B1813,2013-01-18 06:52:00,
2013-01-18 01:57:00,52.0,45.7,30.22,NNW,332,21.0,24.0,79,0.00,,,0.00,0,LWC V2.10 B1813,2013-01-18 06:57:00,
2013-01-18 02:02:00,52.4,46.7,30.23,NNW,339,16.0,27.0,81,0.00,,,0.00,0,LWC V2.10 B1813,2013-01-18 07:02:00,
2013-01-18 02:07:00,51.9,45.6,30.23,North,4,15.0,20.0,79,0.00,,,0.00,0,LWC V2.10 B1813,2013-01-18 07:07:00,
2013-01-18 02:12:00,52.1,45.8,30.23,NNW,347,13.0,22.0,79,0.00,,,0.00,0,LWC V2.10 B1813,2013-01-18 07:12:00,
2013-01-18 02:17:00,52.1,45.8,30.23,NW,324,12.0,16.0,79,0.00,,,0.00,0,LWC V2.10 B1813,2013-01-18 07:17:00,
2013-01-18 02:22:00,52.0,45.7,30.23,NNW,331,23.0,26.0,79,0.00,,,0.00,0,LWC V2.10 B1813,2013-01-18 07:22:00,
2013-01-18 02:27:00,52.2,46.2,30.23,NNE,20,20.0,24.0,80,0.00,,,0.00,0,LWC V2.10 B1813,2013-01-18 07:27:00,
2013-01-18 02:32:00,52.1,45.8,30.23,WNW,291,9.0,21.0,79,0.00,,,0.00,0,LWC V2.10 B1813,2013-01-18 07:32:00,
2013-01-18 02:37:00,52.0,45.7,30.24,NW,317,24.0,24.0,79,0.00,,,0.00,0,LWC V2.10 B1813,2013-01-18 07:37:00,
2013-01-18 02:42:00,52.1,45.8,30.24,NNW,329,17.0,26.0,79,0.00,,,0.00,0,LWC V2.10 B1813,2013-01-18 07:42:00,
2013-01-18 02:47:00,51.8,45.5,30.24,NNW,343,12.0,23.0,79,0.00,,,0.00,0,LWC V2.10 B1813,2013-01-18 07:47:00,
2013-01-18 02:52:00,51.9,45.9,30.24,NE,35,15.0,21.0,80,0.00,,,0.00,0,LWC V2.10 B1813,2013-01-18 07:52:00,
2013-01-18 02:57:00,51.8,45.8,30.24,NNW,346,10.0,17.0,80,0.00,,,0.00,0,LWC V2.10 B1813,2013-01-18 07:57:00,
2013-01-18 03:02:00,51.7,45.7,30.24,NNW,347,24.0,24.0,80,0.00,,,0.00,0,LWC V2.10 B1813,2013-01-18 08:02:00,
2013-01-18 03:07:00,51.7,45.4,30.24,NNE,22,25.0,25.0,79,0.00,,,0.00,0,LWC V2.10 B1813,2013-01-18 08:07:00,
2013-01-18 03:12:00,51.4,45.1,30.24,NNW,347,11.0,14.0,79,0.00,,,0.00,0,LWC V2.10 B1813,2013-01-18 08:12:00,
2013-01-18 03:17:00,51.4,44.8,30.24,NNW,338,20.0,22.0,78,0.00,,,0.00,0,LWC V2.10 B1813,2013-01-18 08:17:00,
2013-01-18 03:22:00,51.3,45.0,30.24,NNW,328,14.0,23.0,79,0.00,,,0.00,0,LWC V2.10 B1813,2013-01-18 08:22:00,
2013-01-18 03:27:00,51.1,44.5,30.24,NNE,31,14.0,16.0,78,0.00,,,0.00,0,LWC V2.10 B1813,2013-01-18 08:27:00,
2013-01-18 03:32:00,51.2,44.6,30.24,North,4,9.0,20.0,78,0.00,,,0.00,0,LWC V2.10 B1813,2013-01-18 08:32:00,
2013-01-18 03:37:00,51.2,44.9,30.24,NNW,340,15.0,15.0,79,0.00,,,0.00,0,LWC V2.10 B1813,2013-01-18 08:37:00,
2013-01-18 03:42:00,51.2,44.9,30.24,NNE,17,6.0,20.0,79,0.00,,,0.00,0,LWC V2.10 B1813,2013-01-18 08:42:00,
2013-01-18 03:47:00,51.0,44.4,30.24,North,4,23.0,23.0,78,0.00,,,0.00,0,LWC V2.10 B1813,2013-01-18 08:47:00,
2013-01-18 03:52:00,50.9,44.6,30.24,NE,35,18.0,22.0,79,0.00,,,0.00,0,LWC V2.10 B1813,2013-01-18 08:52:00,
2013-01-18 03:57:00,50.9,44.6,30.24,North,359,24.0,24.0,79,0.00,,,0.00,0,LWC V2.10 B1813,2013-01-18 08:57:00,
2013-01-18 04:02:00,50.8,44.5,30.24,NNW,345,16.0,23.0,79,0.00,,,0.00,0,LWC V2.10 B1813,2013-01-18 09:02:00,
2013-01-18 04:07:00,50.5,44.2,30.24,NNE,23,8.0,18.0,79,0.00,,,0.00,0,LWC V2.10 B1813,2013-01-18 09:07:00,
2013-01-18 04:12:00,50.3,44.0,30.24,NE,34,9.0,22.0,79,0.00,,,0.00,0,LWC V2.10 B1813,2013-01-18 09:12:00,
2013-01-18 04:17:00,50.0,43.7,30.24,NNE,19,12.0,17.0,79,0.00,,,0.00,0,LWC V2.10 B1813,2013-01-18 09:17:00,
2013-01-18 04:22:00,49.7,43.5,30.24,North,359,13.0,21.0,79,0.00,,,0.00,0,LWC V2.10 B1813,2013-01-18 09:22:00,
2013-01-18 04:27:00,49.6,43.4,30.25,North,359,9.0,18.0,79,0.00,,,0.00,0,LWC V2.10 B1813,2013-01-18 09:27:00,
2013-01-18 04:32:00,49.5,43.3,30.25,North,4,14.0,14.0,79,0.00,,,0.00,0,LWC V2.10 B1813,2013-01-18 09:32:00,
2013-01-18 04:37:00,49.2,42.3,30.25,NNW,337,7.0,26.0,77,0.00,,,0.00,0,LWC V2.10 B1813,2013-01-18 09:37:00,
2013-01-18 04:42:00,49.0,42.1,30.25,North,10,14.0,20.0,77,0.00,,,0.00,0,LWC V2.10 B1813,2013-01-18 09:42:00,
2013-01-18 04:47:00,49.0,42.4,30.25,NNE,12,14.0,26.0,78,0.00,,,0.00,0,LWC V2.10 B1813,2013-01-18 09:47:00,
2013-01-18 04:52:00,48.9,42.3,30.25,NE,35,8.0,14.0,78,0.00,,,0.00,0,LWC V2.10 B1813,2013-01-18 09:52:00,
2013-01-18 04:57:00,48.3,41.8,30.25,NE,56,8.0,13.0,78,0.00,,,0.00,0,LWC V2.10 B1813,2013-01-18 09:57:00,
2013-01-18 05:02:00,47.8,41.6,30.25,NNE,24,4.0,15.0,79,0.00,,,0.00,0,LWC V2.10 B1813,2013-01-18 10:02:00,
2013-01-18 05:07:00,47.5,41.3,30.26,NNE,23,13.0,16.0,79,0.00,,,0.00,0,LWC V2.10 B1813,2013-01-18 10:07:00,
2013-01-18 05:12:00,47.1,40.9,30.26,NNE,27,10.0,15.0,79,0.00,,,0.00,0,LWC V2.10 B1813,2013-01-18 10:12:00,
2013-01-18 05:17:00,46.8,40.6,30.26,NE,50,9.0,11.0,79,0.00,,,0.00,0,LWC V2.10 B1813,2013-01-18 10:17:00,
2013-01-18 05:22:00,46.5,40.3,30.26,NE,35,9.0,14.0,79,0.00,,,0.00,0,LWC V2.10 B1813,2013-01-18 10:22:00,
2013-01-18 05:27:00,46.3,40.1,30.27,NNE,13,10.0,15.0,79,0.00,,,0.00,0,LWC V2.10 B1813,2013-01-18 10:27:00,
2013-01-18 05:32:00,46.1,40.3,30.27,NE,56,1.0,8.0,80,0.00,,,0.00,0,LWC V2.10 B1813,2013-01-18 10:32:00,
2013-01-18 05:37:00,45.8,39.7,30.28,NNE,21,7.0,10.0,79,0.00,,,0.00,0,LWC V2.10 B1813,2013-01-18 10:37:00,
2013-01-18 05:42:00,45.3,39.2,30.28,NNE,15,7.0,12.0,79,0.00,,,0.00,0,LWC V2.10 B1813,2013-01-18 10:42:00,
2013-01-18 05:47:00,45.1,39.3,30.28,NE,41,6.0,12.0,80,0.00,,,0.00,0,LWC V2.10 B1813,2013-01-18 10:47:00,
2013-01-18 05:52:00,45.0,39.2,30.28,North,359,3.0,9.0,80,0.00,,,0.00,0,LWC V2.10 B1813,2013-01-18 10:52:00,
2013-01-18 05:57:00,45.1,39.3,30.29,NE,37,6.0,9.0,80,0.00,,,0.00,0,LWC V2.10 B1813,2013-01-18 10:57:00,
2013-01-18 06:02:00,44.7,38.9,30.29,NE,41,8.0,12.0,80,0.00,,,0.00,0,LWC V2.10 B1813,2013-01-18 11:02:00,
2013-01-18 06:07:00,44.6,38.8,30.29,NNE,16,4.0,7.0,80,0.00,,,0.00,0,LWC V2.10 B1813,2013-01-18 11:07:00,
2013-01-18 06:12:00,44.5,38.7,30.30,North,10,3.0,11.0,80,0.00,,,0.00,0,LWC V2.10 B1813,2013-01-18 11:12:00,
2013-01-18 06:17:00,44.4,38.3,30.30,NE,35,9.0,16.0,79,0.00,,,0.00,0,LWC V2.10 B1813,2013-01-18 11:17:00,
2013-01-18 06:22:00,44.2,38.1,30.30,NE,38,10.0,13.0,79,0.00,,,0.00,0,LWC V2.10 B1813,2013-01-18 11:22:00,
2013-01-18 06:27:00,44.1,38.0,30.30,NNE,33,8.0,12.0,79,0.00,,,0.00,0,LWC V2.10 B1813,2013-01-18 11:27:00,
2013-01-18 06:32:00,44.0,37.9,30.30,NE,34,5.0,17.0,79,0.00,,,0.00,0,LWC V2.10 B1813,2013-01-18 11:32:00,
2013-01-18 06:37:00,43.9,37.8,30.30,NE,37,13.0,17.0,79,0.00,,,0.00,0,LWC V2.10 B1813,2013-01-18 11:37:00,
2013-01-18 06:42:00,43.8,37.7,30.31,NE,56,14.0,20.0,79,0.00,,,0.00,0,LWC V2.10 B1813,2013-01-18 11:42:00,
2013-01-18 06:47:00,43.7,37.6,30.31,NNE,21,7.0,15.0,79,0.00,,,0.00,0,LWC V2.10 B1813,2013-01-18 11:47:00,
2013-01-18 06:52:00,43.5,37.4,30.31,East,94,10.0,16.0,79,0.00,,,0.00,0,LWC V2.10 B1813,2013-01-18 11:52:00,
2013-01-18 06:57:00,43.4,37.3,30.32,NNE,33,8.0,22.0,79,0.00,,,0.00,0,LWC V2.10 B1813,2013-01-18 11:57:00,
2013-01-18 07:02:00,43.7,37.6,30.31,NNW,347,10.0,23.0,79,0.00,,,0.00,0,LWC V2.10 B1813,2013-01-18 12:02:00,
2013-01-18 07:07:00,43.8,37.4,30.32,NNE,31,6.0,15.0,78,0.00,,,0.00,0,LWC V2.10 B1813,2013-01-18 12:07:00,
2013-01-18 07:12:00,43.8,37.4,30.32,NNE,33,14.0,20.0,78,0.00,,,0.00,0,LWC V2.10 B1813,2013-01-18 12:12:00,
2013-01-18 07:17:00,43.8,37.1,30.32,North,4,6.0,16.0,77,0.00,,,0.00,0,LWC V2.10 B1813,2013-01-18 12:17:00,
2013-01-18 07:22:00,43.7,37.0,30.32,NE,39,12.0,18.0,77,0.00,,,0.00,5,LWC V2.10 B1813,2013-01-18 12:22:00,
2013-01-18 07:27:00,43.6,36.9,30.33,NNE,31,19.0,19.0,77,0.00,,,0.00,7,LWC V2.10 B1813,2013-01-18 12:27:00,
2013-01-18 07:32:00,43.6,36.9,30.33,NE,42,6.0,12.0,77,0.00,,,0.00,11,LWC V2.10 B1813,2013-01-18 12:32:00,
2013-01-18 07:37:00,43.6,37.2,30.33,NNE,29,10.0,12.0,78,0.00,,,0.00,14,LWC V2.10 B1813,2013-01-18 12:37:00,
2013-01-18 07:42:00,43.7,37.3,30.34,NE,43,10.0,10.0,78,0.00,,,0.00,23,LWC V2.10 B1813,2013-01-18 12:42:00,
2013-01-18 07:47:00,43.9,37.5,30.34,NNE,18,5.0,11.0,78,0.00,,,0.00,33,LWC V2.10 B1813,2013-01-18 12:47:00,
2013-01-18 07:52:00,43.9,37.5,30.34,NE,41,6.0,9.0,78,0.00,,,0.00,47,LWC V2.10 B1813,2013-01-18 12:52:00,
2013-01-18 07:57:00,43.9,37.2,30.34,NE,35,12.0,12.0,77,0.00,,,0.00,60,LWC V2.10 B1813,2013-01-18 12:57:00,
2013-01-18 08:02:00,44.1,37.4,30.35,East,80,11.0,11.0,77,0.00,,,0.00,77,LWC V2.10 B1813,2013-01-18 13:02:00,
2013-01-18 08:07:00,44.1,37.4,30.35,NE,35,17.0,21.0,77,0.00,,,0.00,100,LWC V2.10 B1813,2013-01-18 13:07:00,
2013-01-18 08:12:00,44.2,37.5,30.35,NE,35,15.0,16.0,77,0.00,,,0.00,98,LWC V2.10 B1813,2013-01-18 13:12:00,
2013-01-18 08:17:00,44.2,37.1,30.35,North,359,11.0,17.0,76,0.00,,,0.00,153,LWC V2.10 B1813,2013-01-18 13:17:00,
2013-01-18 08:22:00,44.2,37.1,30.36,NNW,336,11.0,20.0,76,0.00,,,0.00,207,LWC V2.10 B1813,2013-01-18 13:22:00,
2013-01-18 08:27:00,44.4,37.6,30.36,NE,47,17.0,17.0,77,0.00,,,0.00,128,LWC V2.10 B1813,2013-01-18 13:27:00,
2013-01-18 08:32:00,44.1,37.0,30.36,NNE,27,15.0,20.0,76,0.00,,,0.00,111,LWC V2.10 B1813,2013-01-18 13:32:00,
2013-01-18 08:37:00,44.2,37.5,30.37,SE,143,6.0,17.0,77,0.00,,,0.00,127,LWC V2.10 B1813,2013-01-18 13:37:00,
2013-01-18 08:42:00,44.2,37.5,30.37,NE,44,14.0,24.0,77,0.00,,,0.00,123,LWC V2.10 B1813,2013-01-18 13:42:00,
2013-01-18 08:47:00,44.2,37.1,30.37,North,4,8.0,15.0,76,0.00,,,0.00,144,LWC V2.10 B1813,2013-01-18 13:47:00,
2013-01-18 08:52:00,44.1,37.4,30.37,East,87,13.0,21.0,77,0.00,,,0.00,116,LWC V2.10 B1813,2013-01-18 13:52:00,
2013-01-18 08:57:00,44.0,36.9,30.37,NNE,31,17.0,18.0,76,0.00,,,0.00,118,LWC V2.10 B1813,2013-01-18 13:57:00,
2013-01-18 09:02:00,44.0,37.3,30.36,NNW,344,9.0,16.0,77,0.00,,,0.00,132,LWC V2.10 B1813,2013-01-18 14:02:00,
2013-01-18 09:07:00,44.2,37.5,30.36,North,10,9.0,11.0,77,0.00,,,0.00,156,LWC V2.10 B1813,2013-01-18 14:07:00,
2013-01-18 09:12:00,44.4,37.6,30.37,NNE,33,6.0,14.0,77,0.00,,,0.00,155,LWC V2.10 B1813,2013-01-18 14:12:00,
2013-01-18 09:17:00,44.6,37.8,30.37,NE,37,5.0,10.0,77,0.00,,,0.00,165,LWC V2.10 B1813,2013-01-18 14:17:00,
2013-01-18 09:22:00,45.2,38.4,30.37,NW,320,3.0,11.0,77,0.00,,,0.00,158,LWC V2.10 B1813,2013-01-18 14:22:00,
2013-01-18 09:27:00,45.4,38.3,30.37,NNE,12,3.0,5.0,76,0.00,,,0.00,202,LWC V2.10 B1813,2013-01-18 14:27:00,
2013-01-18 09:32:00,45.5,38.4,30.37,NNE,28,5.0,12.0,76,0.00,,,0.00,197,LWC V2.10 B1813,2013-01-18 14:32:00,
2013-01-18 09:37:00,45.9,39.1,30.37,NNE,12,3.0,5.0,77,0.00,,,0.00,185,LWC V2.10 B1813,2013-01-18 14:37:00,
2013-01-18 09:42:00,46.0,38.9,30.37,NE,37,0.0,9.0,76,0.00,,,0.00,206,LWC V2.10 B1813,2013-01-18 14:42:00,
2013-01-18 09:47:00,46.3,39.5,30.37,NE,50,0.0,2.0,77,0.00,,,0.00,200,LWC V2.10 B1813,2013-01-18 14:47:00,
2013-01-18 09:52:00,46.7,39.5,30.37,NE,48,9.0,11.0,76,0.00,,,0.00,174,LWC V2.10 B1813,2013-01-18 14:52:00,
2013-01-18 09:57:00,46.8,39.6,30.37,ENE,68,8.0,8.0,76,0.00,,,0.00,323,LWC V2.10 B1813,2013-01-18 14:57:00,
2013-01-18 10:02:00,47.2,40.0,30.37,NNE,31,0.0,3.0,76,0.00,,,0.00,288,LWC V2.10 B1813,2013-01-18 15:02:00,
2013-01-18 10:07:00,47.8,40.6,30.37,East,80,5.0,7.0,76,0.00,,,0.00,183,LWC V2.10 B1813,2013-01-18 15:07:00,
2013-01-18 10:12:00,48.1,40.6,30.37,NE,45,5.0,7.0,75,0.00,,,0.00,353,LWC V2.10 B1813,2013-01-18 15:12:00,
2013-01-18 10:17:00,48.8,41.6,30.38,North,4,1.0,8.0,76,0.00,,,0.00,353,LWC V2.10 B1813,2013-01-18 15:17:00,
2013-01-18 10:22:00,49.1,41.2,30.37,ENE,64,8.0,11.0,74,0.00,,,0.00,404,LWC V2.10 B1813,2013-01-18 15:22:00,
2013-01-18 10:27:00,49.2,41.3,30.37,NE,47,3.0,12.0,74,0.00,,,0.00,441,LWC V2.10 B1813,2013-01-18 15:27:00,
2013-01-18 10:32:00,49.7,41.8,30.37,NE,56,7.0,11.0,74,0.00,,,0.00,396,LWC V2.10 B1813,2013-01-18 15:32:00,
2013-01-18 10:37:00,49.9,41.9,30.37,NE,54,7.0,11.0,74,0.00,,,0.00,436,LWC V2.10 B1813,2013-01-18 15:37:00,
2013-01-18 10:42:00,50.3,42.3,30.37,NE,34,1.0,7.0,74,0.00,,,0.00,390,LWC V2.10 B1813,2013-01-18 15:42:00,
2013-01-18 10:47:00,50.8,42.5,30.37,NE,51,8.0,12.0,73,0.00,,,0.00,464,LWC V2.10 B1813,2013-01-18 15:47:00,
2013-01-18 10:52:00,51.2,43.2,30.37,NE,43,4.0,8.0,74,0.00,,,0.00,499,LWC V2.10 B1813,2013-01-18 15:52:00,
2013-01-18 10:57:00,51.8,43.1,30.37,North,8,5.0,8.0,72,0.00,,,0.00,345,LWC V2.10 B1813,2013-01-18 15:57:00,
2013-01-18 11:02:00,52.6,43.8,30.37,NE,35,2.0,6.0,72,0.00,,,0.00,459,LWC V2.10 B1813,2013-01-18 16:02:00,
2013-01-18 11:07:00,53.1,43.9,30.37,NE,43,10.0,10.0,71,0.00,,,0.00,415,LWC V2.10 B1813,2013-01-18 16:07:00,
2013-01-18 11:12:00,52.7,43.6,30.36,NNE,23,8.0,9.0,71,0.00,,,0.00,367,LWC V2.10 B1813,2013-01-18 16:12:00,
2013-01-18 11:17:00,53.3,44.5,30.36,NE,56,9.0,10.0,72,0.00,,,0.00,410,LWC V2.10 B1813,2013-01-18 16:17:00,
2013-01-18 11:22:00,52.8,44.0,30.36,ENE,66,5.0,9.0,72,0.00,,,0.00,341,LWC V2.10 B1813,2013-01-18 16:22:00,
2013-01-18 11:27:00,53.1,44.3,30.36,NNE,15,7.0,8.0,72,0.00,,,0.00,367,LWC V2.10 B1813,2013-01-18 16:27:00,
2013-01-18 11:32:00,53.2,44.4,30.36,North,359,10.0,11.0,72,0.00,,,0.00,281,LWC V2.10 B1813,2013-01-18 16:32:00,
2013-01-18 11:37:00,52.9,44.5,30.35,NE,43,4.0,13.0,73,0.00,,,0.00,338,LWC V2.10 B1813,2013-01-18 16:37:00,
2013-01-18 11:42:00,53.2,44.8,30.35,NNE,12,2.0,13.0,73,0.00,,,0.00,323,LWC V2.10 B1813,2013-01-18 16:42:00,
2013-01-18 11:47:00,53.2,44.8,30.35,NNE,15,1.0,10.0,73,0.00,,,0.00,322,LWC V2.10 B1813,2013-01-18 16:47:00,
2013-01-18 11:52:00,53.5,45.4,30.35,ENE,64,11.0,11.0,74,0.00,,,0.00,325,LWC V2.10 B1813,2013-01-18 16:52:00,
2013-01-18 11:57:00,53.7,45.3,30.34,NE,45,10.0,13.0,73,0.00,,,0.00,468,LWC V2.10 B1813,2013-01-18 16:57:00,
2013-01-18 12:02:00,54.0,45.2,30.34,NNE,29,2.0,11.0,72,0.00,,,0.00,538,LWC V2.10 B1813,2013-01-18 17:02:00,
2013-01-18 12:07:00,54.4,45.9,30.34,NNE,22,6.0,8.0,73,0.00,,,0.00,621,LWC V2.10 B1813,2013-01-18 17:07:00,
2013-01-18 12:12:00,54.7,45.9,30.34,NE,41,5.0,14.0,72,0.00,,,0.00,455,LWC V2.10 B1813,2013-01-18 17:12:00,
2013-01-18 12:17:00,54.7,45.9,30.34,NE,41,9.0,14.0,72,0.00,,,0.00,547,LWC V2.10 B1813,2013-01-18 17:17:00,
2013-01-18 12:22:00,55.2,46.3,30.33,ENE,58,9.0,12.0,72,0.00,,,0.00,575,LWC V2.10 B1813,2013-01-18 17:22:00,
2013-01-18 12:27:00,55.4,46.5,30.33,NE,38,5.0,18.0,72,0.00,,,0.00,791,LWC V2.10 B1813,2013-01-18 17:27:00,
2013-01-18 12:32:00,55.9,47.0,30.32,NE,39,1.0,13.0,72,0.00,,,0.00,819,LWC V2.10 B1813,2013-01-18 17:32:00,
2013-01-18 12:37:00,56.4,47.5,30.32,NE,38,6.0,9.0,72,0.00,,,0.00,457,LWC V2.10 B1813,2013-01-18 17:37:00,
2013-01-18 12:42:00,57.0,47.7,30.32,NW,316,1.0,12.0,71,0.00,,,0.00,594,LWC V2.10 B1813,2013-01-18 17:42:00,
2013-01-18 12:47:00,57.2,47.5,30.32,NE,45,5.0,12.0,70,0.00,,,0.00,617,LWC V2.10 B1813,2013-01-18 17:47:00,
2013-01-18 12:52:00,57.1,47.4,30.32,NNE,21,8.0,13.0,70,0.00,,,0.00,373,LWC V2.10 B1813,2013-01-18 17:52:00,
2013-01-18 12:57:00,57.1,47.4,30.31,NE,50,14.0,18.0,70,0.00,,,0.00,756,LWC V2.10 B1813,2013-01-18 17:57:00,
2013-01-18 13:02:00,57.1,47.8,30.31,NNW,347,2.0,14.0,71,0.00,,,0.00,751,LWC V2.10 B1813,2013-01-18 18:02:00,
2013-01-18 13:08:00,57.8,48.1,30.31,NE,45,6.0,13.0,70,0.00,,,0.00,749,LWC V2.10 B1813,2013-01-18 18:08:00,
2013-01-18 13:13:00,58.1,48.4,30.31,East,88,3.0,14.0,70,0.00,,,0.00,809,LWC V2.10 B1813,2013-01-18 18:13:00,
2013-01-18 13:18:00,58.2,48.1,30.31,NNE,13,3.0,10.0,69,0.00,,,0.00,754,LWC V2.10 B1813,2013-01-18 18:18:00,
2013-01-18 13:23:00,58.9,49.1,30.31,North,10,5.0,8.0,70,0.00,,,0.00,696,LWC V2.10 B1813,2013-01-18 18:23:00,
2013-01-18 13:28:00,59.4,49.2,30.31,ENE,73,10.0,12.0,69,0.00,,,0.00,919,LWC V2.10 B1813,2013-01-18 18:28:00,
2013-01-18 13:33:00,59.0,49.2,30.30,NE,34,3.0,8.0,70,0.00,,,0.00,884,LWC V2.10 B1813,2013-01-18 18:33:00,
2013-01-18 13:38:00,59.7,49.5,30.30,NNE,18,5.0,11.0,69,0.00,,,0.00,462,LWC V2.10 B1813,2013-01-18 18:38:00,
2013-01-18 13:43:00,60.1,49.9,30.30,NE,52,8.0,14.0,69,0.00,,,0.00,418,LWC V2.10 B1813,2013-01-18 18:43:00,
2013-01-18 13:48:00,60.0,49.8,30.30,NE,52,10.0,10.0,69,0.00,,,0.00,629,LWC V2.10 B1813,2013-01-18 18:48:00,
2013-01-18 13:53:00,60.6,50.8,30.30,NNE,33,6.0,11.0,70,0.00,,,0.00,522,LWC V2.10 B1813,2013-01-18 18:53:00,
2013-01-18 13:58:00,60.8,50.6,30.30,ENE,65,12.0,14.0,69,0.00,,,0.00,482,LWC V2.10 B1813,2013-01-18 18:58:00,
2013-01-18 14:03:00,60.5,50.7,30.30,NNE,33,4.0,14.0,70,0.00,,,0.00,452,LWC V2.10 B1813,2013-01-18 19:03:00,
2013-01-18 14:08:00,60.8,51.0,30.29,NNW,346,7.0,9.0,70,0.00,,,0.00,283,LWC V2.10 B1813,2013-01-18 19:08:00,
2013-01-18 14:13:00,60.2,50.4,30.29,NNE,29,10.0,10.0,70,0.00,,,0.00,211,LWC V2.10 B1813,2013-01-18 19:13:00,
2013-01-18 14:18:00,60.3,50.9,30.29,NNW,335,6.0,15.0,71,0.00,,,0.00,218,LWC V2.10 B1813,2013-01-18 19:18:00,
2013-01-18 14:23:00,60.4,51.3,30.29,NE,54,9.0,14.0,72,0.00,,,0.00,199,LWC V2.10 B1813,2013-01-18 19:23:00,
2013-01-18 14:28:00,60.0,50.6,30.29,NNE,29,9.0,20.0,71,0.00,,,0.00,209,LWC V2.10 B1813,2013-01-18 19:28:00,
2013-01-18 14:33:00,59.6,50.9,30.29,NNE,18,9.0,10.0,73,0.00,,,0.00,174,LWC V2.10 B1813,2013-01-18 19:33:00,
2013-01-18 14:38:00,59.3,51.0,30.29,ENE,60,11.0,18.0,74,0.00,,,0.00,160,LWC V2.10 B1813,2013-01-18 19:38:00,
2013-01-18 14:43:00,59.8,51.5,30.29,NNE,33,1.0,7.0,74,0.00,,,0.00,197,LWC V2.10 B1813,2013-01-18 19:43:00,
2013-01-18 14:48:00,59.9,51.6,30.29,ENE,58,7.0,10.0,74,0.00,,,0.00,227,LWC V2.10 B1813,2013-01-18 19:48:00,
2013-01-18 14:53:00,60.1,51.4,30.29,NNE,21,9.0,12.0,73,0.00,,,0.00,232,LWC V2.10 B1813,2013-01-18 19:53:00,
2013-01-18 14:58:00,60.1,51.4,30.29,NE,53,9.0,13.0,73,0.00,,,0.00,299,LWC V2.10 B1813,2013-01-18 19:58:00,
2013-01-18 15:03:00,60.4,51.7,30.28,ENE,60,11.0,17.0,73,0.00,,,0.00,230,LWC V2.10 B1813,2013-01-18 20:03:00,
2013-01-18 15:08:00,60.3,51.6,30.29,ENE,60,5.0,13.0,73,0.00,,,0.00,162,LWC V2.10 B1813,2013-01-18 20:08:00,
2013-01-18 15:13:00,60.3,52.0,30.29,ENE,59,11.0,13.0,74,0.00,,,0.00,206,LWC V2.10 B1813,2013-01-18 20:13:00,
2013-01-18 15:18:00,60.2,51.9,30.29,NE,46,7.0,18.0,74,0.00,,,0.00,176,LWC V2.10 B1813,2013-01-18 20:18:00,
2013-01-18 15:23:00,59.8,51.9,30.29,ENE,60,13.0,16.0,75,0.00,,,0.00,195,LWC V2.10 B1813,2013-01-18 20:23:00,
2013-01-18 15:28:00,59.6,52.4,30.29,NE,54,11.0,19.0,77,0.00,,,0.00,179,LWC V2.10 B1813,2013-01-18 20:28:00,
2013-01-18 15:33:00,59.5,52.3,30.29,ENE,68,8.0,12.0,77,0.00,,,0.00,227,LWC V2.10 B1813,2013-01-18 20:33:00,
2013-01-18 15:38:00,59.6,52.4,30.29,NE,43,6.0,15.0,77,0.00,,,0.00,181,LWC V2.10 B1813,2013-01-18 20:38:00,
2013-01-18 15:43:00,59.9,52.7,30.29,NE,44,8.0,9.0,77,0.00,,,0.00,162,LWC V2.10 B1813,2013-01-18 20:43:00,
2013-01-18 15:48:00,60.2,53.0,30.29,NE,52,9.0,10.0,77,0.00,,,0.00,193,LWC V2.10 B1813,2013-01-18 20:48:00,
2013-01-18 15:53:00,60.2,52.6,30.29,NE,54,7.0,11.0,76,0.00,,,0.00,135,LWC V2.10 B1813,2013-01-18 20:53:00,
2013-01-18 15:58:00,60.3,52.7,30.29,NE,51,6.0,12.0,76,0.00,,,0.00,113,LWC V2.10 B1813,2013-01-18 20:58:00,
2013-01-18 16:03:00,60.5,52.9,30.30,ENE,73,8.0,10.0,76,0.00,,,0.00,135,LWC V2.10 B1813,2013-01-18 21:03:00,
2013-01-18 16:08:00,60.7,52.7,30.29,NNE,33,10.0,11.0,75,0.00,,,0.00,113,LWC V2.10 B1813,2013-01-18 21:08:00,
2013-01-18 16:13:00,60.9,52.9,30.29,NE,36,8.0,10.0,75,0.00,,,0.00,134,LWC V2.10 B1813,2013-01-18 21:13:00,
2013-01-18 16:18:00,61.2,52.8,30.29,NE,35,8.0,9.0,74,0.00,,,0.00,178,LWC V2.10 B1813,2013-01-18 21:18:00,
2013-01-18 16:23:00,61.5,53.1,30.30,North,359,2.0,8.0,74,0.00,,,0.00,97,LWC V2.10 B1813,2013-01-18 21:23:00,
2013-01-18 16:28:00,61.6,52.9,30.30,NE,50,10.0,15.0,73,0.00,,,0.00,88,LWC V2.10 B1813,2013-01-18 21:28:00,
2013-01-18 16:33:00,61.7,53.0,30.29,NE,41,9.0,10.0,73,0.00,,,0.00,65,LWC V2.10 B1813,2013-01-18 21:33:00,
2013-01-18 16:38:00,61.7,53.0,30.29,North,4,5.0,10.0,73,0.00,,,0.00,128,LWC V2.10 B1813,2013-01-18 21:38:00,
2013-01-18 16:43:00,61.8,53.0,30.29,NE,34,2.0,6.0,73,0.00,,,0.00,83,LWC V2.10 B1813,2013-01-18 21:43:00,
2013-01-18 16:48:00,61.9,53.1,30.29,NNE,25,6.0,9.0,73,0.00,,,0.00,79,LWC V2.10 B1813,2013-01-18 21:48:00,
2013-01-18 16:53:00,61.9,53.1,30.30,NNE,21,3.0,9.0,73,0.00,,,0.00,49,LWC V2.10 B1813,2013-01-18 21:53:00,
2013-01-18 16:58:00,61.9,53.5,30.30,NNE,30,2.0,9.0,74,0.00,,,0.00,39,LWC V2.10 B1813,2013-01-18 21:58:00,
2013-01-18 17:03:00,61.9,53.5,30.30,NNE,23,5.0,10.0,74,0.00,,,0.00,28,LWC V2.10 B1813,2013-01-18 22:03:00,
2013-01-18 17:08:00,62.0,53.6,30.30,NE,35,9.0,11.0,74,0.00,,,0.00,25,LWC V2.10 B1813,2013-01-18 22:08:00,
2013-01-18 17:13:00,62.0,53.6,30.30,NE,48,5.0,13.0,74,0.00,,,0.00,19,LWC V2.10 B1813,2013-01-18 22:13:00,
2013-01-18 17:18:00,62.0,54.0,30.30,NE,50,5.0,12.0,75,0.00,,,0.00,28,LWC V2.10 B1813,2013-01-18 22:18:00,
2013-01-18 17:23:00,62.0,54.0,30.30,NE,39,9.0,16.0,75,0.00,,,0.00,23,LWC V2.10 B1813,2013-01-18 22:23:00,
2013-01-18 17:28:00,62.0,54.0,30.30,NE,49,4.0,6.0,75,0.00,,,0.00,23,LWC V2.10 B1813,2013-01-18 22:28:00,
2013-01-18 17:33:00,62.0,54.0,30.31,ENE,70,8.0,11.0,75,0.00,,,0.00,16,LWC V2.10 B1813,2013-01-18 22:33:00,
2013-01-18 17:38:00,62.1,54.1,30.31,NE,38,5.0,9.0,75,0.00,,,0.00,9,LWC V2.10 B1813,2013-01-18 22:38:00,
2013-01-18 17:43:00,62.1,54.1,30.31,NE,53,10.0,10.0,75,0.00,,,0.00,11,LWC V2.10 B1813,2013-01-18 22:43:00,
2013-01-18 17:48:00,62.0,54.0,30.31,ENE,70,9.0,13.0,75,0.00,,,0.00,5,LWC V2.10 B1813,2013-01-18 22:48:00,
2013-01-18 17:53:00,61.9,54.2,30.31,NE,52,6.0,12.0,76,0.00,,,0.00,0,LWC V2.10 B1813,2013-01-18 22:53:00,
2013-01-18 17:58:00,61.6,54.0,30.31,North,4,6.0,13.0,76,0.00,,,0.00,0,LWC V2.10 B1813,2013-01-18 22:58:00,
2013-01-18 18:03:00,61.5,53.9,30.31,NE,53,8.0,13.0,76,0.00,,,0.00,0,LWC V2.10 B1813,2013-01-18 23:03:00,
2013-01-18 18:08:00,61.6,54.0,30.31,NNE,29,4.0,11.0,76,0.00,,,0.00,0,LWC V2.10 B1813,2013-01-18 23:08:00,
2013-01-18 18:13:00,61.7,54.1,30.32,NE,37,11.0,11.0,76,0.00,,,0.00,0,LWC V2.10 B1813,2013-01-18 23:13:00,
2013-01-18 18:18:00,61.7,54.1,30.31,ENE,63,7.0,9.0,76,0.00,,,0.00,0,LWC V2.10 B1813,2013-01-18 23:18:00,
2013-01-18 18:23:00,61.7,54.1,30.31,NNE,27,5.0,8.0,76,0.00,,,0.00,0,LWC V2.10 B1813,2013-01-18 23:23:00,
2013-01-18 18:28:00,61.7,54.1,30.32,North,8,3.0,9.0,76,0.00,,,0.00,0,LWC V2.10 B1813,2013-01-18 23:28:00,
2013-01-18 18:33:00,61.8,54.2,30.31,NNE,29,9.0,11.0,76,0.00,,,0.00,0,LWC V2.10 B1813,2013-01-18 23:33:00,
2013-01-18 18:38:00,61.8,54.2,30.32,NNE,22,5.0,9.0,76,0.00,,,0.00,0,LWC V2.10 B1813,2013-01-18 23:38:00,
2013-01-18 18:43:00,61.8,54.2,30.32,NE,39,6.0,9.0,76,0.00,,,0.00,0,LWC V2.10 B1813,2013-01-18 23:43:00,
2013-01-18 18:48:00,61.8,54.2,30.32,NNE,31,7.0,13.0,76,0.00,,,0.00,0,LWC V2.10 B1813,2013-01-18 23:48:00,
2013-01-18 18:53:00,61.8,54.2,30.32,NE,34,9.0,17.0,76,0.00,,,0.00,0,LWC V2.10 B1813,2013-01-18 23:53:00,
2013-01-18 18:58:00,61.7,54.1,30.32,NNE,26,4.0,16.0,76,0.00,,,0.00,0,LWC V2.10 B1813,2013-01-18 23:58:00,
2013-01-18 19:03:00,61.6,54.3,30.32,NE,55,7.0,17.0,77,0.00,,,0.00,0,LWC V2.10 B1813,2013-01-19 00:03:00,
2013-01-18 19:08:00,61.6,54.3,30.32,NE,39,8.0,13.0,77,0.00,,,0.00,0,LWC V2.10 B1813,2013-01-19 00:08:00,
2013-01-18 19:13:00,61.6,54.0,30.33,NE,54,6.0,11.0,76,0.00,,,0.00,0,LWC V2.10 B1813,2013-01-19 00:13:00,
2013-01-18 19:18:00,61.7,54.1,30.33,NE,36,10.0,12.0,76,0.00,,,0.00,0,LWC V2.10 B1813,2013-01-19 00:18:00,
2013-01-18 19:23:00,61.7,53.7,30.33,NNE,21,7.0,11.0,75,0.00,,,0.00,0,LWC V2.10 B1813,2013-01-19 00:23:00,
2013-01-18 19:28:00,61.8,53.8,30.33,NE,35,9.0,15.0,75,0.00,,,0.00,0,LWC V2.10 B1813,2013-01-19 00:28:00,
2013-01-18 19:33:00,61.7,53.7,30.33,NE,41,0.0,13.0,75,0.00,,,0.00,0,LWC V2.10 B1813,2013-01-19 00:33:00,
2013-01-18 19:38:00,61.7,53.3,30.33,NNE,29,9.0,21.0,74,0.00,,,0.00,0,LWC V2.10 B1813,2013-01-19 00:38:00,
2013-01-18 19:43:00,61.7,53.3,30.33,ENE,72,9.0,17.0,74,0.00,,,0.00,0,LWC V2.10 B1813,2013-01-19 00:43:00,
2013-01-18 19:48:00,61.7,53.3,30.33,NE,48,8.0,16.0,74,0.00,,,0.00,0,LWC V2.10 B1813,2013-01-19 00:48:00,
2013-01-18 19:53:00,61.6,53.2,30.34,NE,39,12.0,15.0,74,0.00,,,0.00,0,LWC V2.10 B1813,2013-01-19 00:53:00,
2013-01-18 19:58:00,61.4,53.0,30.33,NNW,347,8.0,18.0,74,0.00,,,0.00,0,LWC V2.10 B1813,2013-01-19 00:58:00,
2013-01-18 20:03:00,61.4,53.0,30.34,NE,35,9.0,14.0,74,0.00,,,0.00,0,LWC V2.10 B1813,2013-01-19 01:03:00,
2013-01-18 20:08:00,61.2,52.5,30.34,NE,35,7.0,19.0,73,0.00,,,0.00,0,LWC V2.10 B1813,2013-01-19 01:08:00,
2013-01-18 20:13:00,61.1,52.7,30.34,NE,40,13.0,14.0,74,0.00,,,0.00,0,LWC V2.10 B1813,2013-01-19 01:13:00,
2013-01-18 20:18:00,60.9,52.6,30.34,NNE,20,9.0,19.0,74,0.00,,,0.00,0,LWC V2.10 B1813,2013-01-19 01:18:00,
2013-01-18 20:23:00,60.9,52.6,30.34,NNE,25,17.0,18.0,74,0.00,,,0.00,0,LWC V2.10 B1813,2013-01-19 01:23:00,
2013-01-18 20:28:00,60.7,52.4,30.34,NE,39,15.0,18.0,74,0.00,,,0.00,0,LWC V2.10 B1813,2013-01-19 01:28:00,
2013-01-18 20:33:00,60.5,52.2,30.34,NNE,12,6.0,16.0,74,0.00,,,0.00,0,LWC V2.10 B1813,2013-01-19 01:33:00,
2013-01-18 20:38:00,60.5,52.2,30.34,NE,48,6.0,17.0,74,0.00,,,0.00,0,LWC V2.10 B1813,2013-01-19 01:38:00,
2013-01-18 20:43:00,60.4,52.1,30.35,NE,35,4.0,19.0,74,0.00,,,0.00,0,LWC V2.10 B1813,2013-01-19 01:43:00,
2013-01-18 20:48:00,60.4,52.1,30.35,NE,43,6.0,17.0,74,0.00,,,0.00,0,LWC V2.10 B1813,2013-01-19 01:48:00,
2013-01-18 20:53:00,60.3,52.0,30.34,NNE,14,13.0,18.0,74,0.00,,,0.00,0,LWC V2.10 B1813,2013-01-19 01:53:00,
2013-01-18 20:58:00,60.3,52.0,30.35,NNW,339,1.0,14.0,74,0.00,,,0.00,0,LWC V2.10 B1813,2013-01-19 01:58:00,
2013-01-18 21:03:00,60.2,51.9,30.35,NE,37,3.0,15.0,74,0.00,,,0.00,0,LWC V2.10 B1813,2013-01-19 02:03:00,
2013-01-18 21:08:00,60.2,51.9,30.35,NE,39,14.0,18.0,74,0.00,,,0.00,0,LWC V2.10 B1813,2013-01-19 02:08:00,
2013-01-18 21:13:00,60.0,51.7,30.35,NNE,15,5.0,16.0,74,0.00,,,0.00,0,LWC V2.10 B1813,2013-01-19 02:13:00,
2013-01-18 21:18:00,59.9,52.0,30.35,NE,38,14.0,20.0,75,0.00,,,0.00,0,LWC V2.10 B1813,2013-01-19 02:18:00,
2013-01-18 21:23:00,59.8,51.5,30.35,NNE,18,8.0,14.0,74,0.00,,,0.00,0,LWC V2.10 B1813,2013-01-19 02:23:00,
2013-01-18 21:28:00,59.7,51.4,30.35,NNW,339,7.0,12.0,74,0.00,,,0.00,0,LWC V2.10 B1813,2013-01-19 02:28:00,
2013-01-18 21:33:00,59.6,51.3,30.35,NNE,27,13.0,18.0,74,0.00,,,0.00,0,LWC V2.10 B1813,2013-01-19 02:33:00,
2013-01-18 21:38:00,59.4,51.1,30.35,NE,50,13.0,17.0,74,0.00,,,0.00,0,LWC V2.10 B1813,2013-01-19 02:38:00,
2013-01-18 21:43:00,59.3,51.0,30.35,NE,39,12.0,20.0,74,0.00,,,0.00,0,LWC V2.10 B1813,2013-01-19 02:43:00,
2013-01-18 21:48:00,59.2,51.3,30.35,NE,40,9.0,21.0,75,0.00,,,0.00,0,LWC V2.10 B1813,2013-01-19 02:48:00,
2013-01-18 21:53:00,59.1,51.2,30.35,NE,39,13.0,13.0,75,0.00,,,0.00,0,LWC V2.10 B1813,2013-01-19 02:53:00,
2013-01-18 21:58:00,59.0,50.7,30.35,NNE,21,4.0,20.0,74,0.00,,,0.00,0,LWC V2.10 B1813,2013-01-19 02:58:00,
2013-01-18 22:03:00,59.0,51.1,30.34,NNE,29,9.0,11.0,75,0.00,,,0.00,0,LWC V2.10 B1813,2013-01-19 03:03:00,
2013-01-18 22:08:00,58.9,51.0,30.34,NNE,27,6.0,9.0,75,0.00,,,0.00,0,LWC V2.10 B1813,2013-01-19 03:08:00,
2013-01-18 22:13:00,58.9,51.0,30.34,NNE,25,4.0,11.0,75,0.00,,,0.00,0,LWC V2.10 B1813,2013-01-19 03:13:00,
2013-01-18 22:18:00,58.8,50.9,30.34,NNE,32,6.0,13.0,75,0.00,,,0.00,0,LWC V2.10 B1813,2013-01-19 03:18:00,
2013-01-18 22:23:00,58.5,50.6,30.35,NE,51,4.0,20.0,75,0.00,,,0.00,0,LWC V2.10 B1813,2013-01-19 03:23:00,
2013-01-18 22:28:00,58.4,50.5,30.35,NE,40,9.0,14.0,75,0.00,,,0.00,0,LWC V2.10 B1813,2013-01-19 03:28:00,
2013-01-18 22:33:00,58.3,50.4,30.35,NNE,22,5.0,10.0,75,0.00,,,0.00,0,LWC V2.10 B1813,2013-01-19 03:33:00,
2013-01-18 22:38:00,58.1,50.2,30.35,NNE,21,6.0,14.0,75,0.00,,,0.00,0,LWC V2.10 B1813,2013-01-19 03:38:00,
2013-01-18 22:43:00,58.0,50.1,30.35,North,9,8.0,12.0,75,0.00,,,0.00,0,LWC V2.10 B1813,2013-01-19 03:43:00,
2013-01-18 22:48:00,57.8,49.9,30.35,North,359,6.0,9.0,75,0.00,,,0.00,0,LWC V2.10 B1813,2013-01-19 03:48:00,
2013-01-18 22:53:00,57.7,49.8,30.35,NNE,33,11.0,13.0,75,0.00,,,0.00,0,LWC V2.10 B1813,2013-01-19 03:53:00,
2013-01-18 22:58:00,57.6,49.7,30.34,NNE,13,8.0,16.0,75,0.00,,,0.00,0,LWC V2.10 B1813,2013-01-19 03:58:00,
2013-01-18 23:03:00,57.6,49.7,30.35,NE,42,5.0,10.0,75,0.00,,,0.00,0,LWC V2.10 B1813,2013-01-19 04:03:00,
2013-01-18 23:08:00,57.6,50.1,30.35,NE,42,6.0,10.0,76,0.00,,,0.00,0,LWC V2.10 B1813,2013-01-19 04:08:00,
2013-01-18 23:13:00,57.5,49.6,30.34,ENE,62,12.0,12.0,75,0.00,,,0.00,0,LWC V2.10 B1813,2013-01-19 04:13:00,
2013-01-18 23:18:00,57.4,49.5,30.34,NNE,26,8.0,11.0,75,0.00,,,0.00,0,LWC V2.10 B1813,2013-01-19 04:18:00,
2013-01-18 23:23:00,57.3,49.8,30.34,NNE,23,3.0,10.0,76,0.00,,,0.00,0,LWC V2.10 B1813,2013-01-19 04:23:00,
2013-01-18 23:28:00,57.1,49.2,30.34,NNE,21,3.0,10.0,75,0.00,,,0.00,0,LWC V2.10 B1813,2013-01-19 04:28:00,
2013-01-18 23:33:00,56.9,49.1,30.34,North,9,7.0,10.0,75,0.00,,,0.00,0,LWC V2.10 B1813,2013-01-19 04:33:00,
2013-01-18 23:38:00,56.8,49.0,30.34,NNE,20,5.0,10.0,75,0.00,,,0.00,0,LWC V2.10 B1813,2013-01-19 04:38:00,
2013-01-18 23:43:00,56.7,48.9,30.33,North,4,4.0,14.0,75,0.00,,,0.00,0,LWC V2.10 B1813,2013-01-19 04:43:00,
2013-01-18 23:48:00,56.6,48.8,30.33,NE,38,5.0,12.0,75,0.00,,,0.00,0,LWC V2.10 B1813,2013-01-19 04:48:00,
2013-01-18 23:53:00,56.5,49.0,30.33,NNE,16,7.0,8.0,76,0.00,,,0.00,0,LWC V2.10 B1813,2013-01-19 04:53:00,
2013-01-18 23:58:00,56.4,48.9,30.33,NNE,13,8.0,11.0,76,0.00,,,0.00,0,LWC V2.10 B1813,2013-01-19 04:58:00,